createdAt,value
2022-10-03T00:28:07.980Z,13
2022-10-03T00:56:43.076Z,10
2022-10-03T01:25:25.452Z,13
2022-10-03T01:54:09.154Z,14
2022-10-03T02:22:44.179Z,14
2022-10-03T02:51:29.699Z,17
2022-10-03T03:20:17.491Z,16
2022-10-03T03:48:58.608Z,17
2022-10-03T04:17:39.766Z,16
2022-10-03T04:46:23.813Z,16
2022-10-03T05:15:02.191Z,19
2022-10-03T05:43:37.779Z,19
2022-10-03T06:12:18.585Z,18
2022-10-03T06:40:49.545Z,20
2022-10-03T07:09:32.249Z,20
2022-10-03T07:38:02.962Z,17
2022-10-03T08:06:35.725Z,16
2022-10-03T08:35:12.565Z,16
2022-10-03T09:03:43.999Z,17
2022-10-03T09:32:03.600Z,16
2022-10-03T10:00:46.003Z,15
2022-10-03T10:29:11.716Z,15
2022-10-03T10:57:44.890Z,17
2022-10-03T11:26:19.110Z,14
2022-10-03T11:54:51.490Z,13
2022-10-03T12:23:21.046Z,11
2022-10-03T12:52:02.434Z,13
2022-10-03T13:20:29.766Z,10
2022-10-03T13:49:13.522Z,10
2022-10-03T14:17:39.648Z,10
2022-10-03T14:46:01.770Z,13
2022-10-03T15:14:30.643Z,15
2022-10-03T15:43:09.243Z,13
2022-10-03T16:11:53.027Z,14
2022-10-03T16:40:04.444Z,12
2022-10-03T17:08:41.903Z,16
2022-10-03T17:36:53.110Z,16
2022-10-03T18:05:34.166Z,19
2022-10-03T18:34:18.342Z,18
2022-10-03T19:03:09.563Z,17
2022-10-03T19:31:55.426Z,16
2022-10-03T20:00:31.644Z,17
2022-10-03T20:29:08.133Z,16
2022-10-03T20:57:34.499Z,19
2022-10-03T21:26:08.615Z,16
2022-10-03T21:54:56.690Z,20
2022-10-03T22:23:47.679Z,22
2022-10-03T22:52:34.925Z,22
2022-10-03T23:21:24.854Z,16
2022-10-03T23:50:08.513Z,16
